createdAt,value
2019-03-19T00:00:59.044Z,90.20
2019-03-19T00:03:29.949Z,90.90
2019-03-19T00:06:01.322Z,90.60
2019-03-19T00:08:31.365Z,91.10
2019-03-19T00:11:01.227Z,90.90
2019-03-19T00:13:31.259Z,89.70
2019-03-19T00:16:01.164Z,88.40
2019-03-19T00:18:31.042Z,89.00
2019-03-19T00:21:00.941Z,88.80
2019-03-19T00:23:30.912Z,88.90
2019-03-19T00:26:00.812Z,88.90
2019-03-19T00:28:30.689Z,89.50
2019-03-19T00:31:00.652Z,88.10
2019-03-19T00:33:30.668Z,88.50
2019-03-19T00:36:00.480Z,88.10
2019-03-19T00:38:30.280Z,89.20
2019-03-19T00:41:00.160Z,88.80
2019-03-19T00:43:29.968Z,88.80
2019-03-19T00:45:59.807Z,89.50
2019-03-19T00:48:29.711Z,88.30
2019-03-19T00:50:59.575Z,89.40
2019-03-19T00:53:29.525Z,90.10
2019-03-19T00:56:00.449Z,90.10
2019-03-19T00:58:30.480Z,89.70
2019-03-19T01:01:00.370Z,89.10
2019-03-19T01:03:30.325Z,89.30
2019-03-19T01:06:00.206Z,89.60
2019-03-19T01:08:30.112Z,90.00
2019-03-19T01:11:00.065Z,89.90
2019-03-19T01:13:30.036Z,90.20
2019-03-19T01:15:59.912Z,90.50
2019-03-19T01:18:29.890Z,90.70
2019-03-19T01:20:59.827Z,90.80
2019-03-19T01:23:29.849Z,90.70
2019-03-19T01:25:59.673Z,90.80
2019-03-19T01:28:29.611Z,90.40
2019-03-19T01:30:59.519Z,90.30
2019-03-19T01:33:29.555Z,90.00
2019-03-19T01:35:59.596Z,88.90
2019-03-19T01:38:29.479Z,88.20
2019-03-19T01:40:59.382Z,88.00
2019-03-19T01:43:29.320Z,88.30
2019-03-19T01:45:59.347Z,88.20
2019-03-19T01:48:29.160Z,88.40
2019-03-19T01:50:59.194Z,89.30
2019-03-19T01:53:29.225Z,89.20
2019-03-19T01:56:05.254Z,88.10
2019-03-19T01:58:30.812Z,88.90
2019-03-19T02:01:00.699Z,88.70
2019-03-19T02:03:30.644Z,88.60
2019-03-19T02:06:00.632Z,88.50
2019-03-19T02:08:30.582Z,88.30
2019-03-19T02:11:00.527Z,88.30
2019-03-19T02:13:31.597Z,88.70
2019-03-19T02:16:01.621Z,89.90
2019-03-19T02:18:31.587Z,88.90
2019-03-19T02:21:01.468Z,88.60
2019-03-19T02:23:31.421Z,88.60
2019-03-19T02:26:01.296Z,89.70
2019-03-19T02:28:31.329Z,88.90
2019-03-19T02:31:01.169Z,89.10
2019-03-19T02:33:31.109Z,89.20
2019-03-19T02:36:00.976Z,89.90
2019-03-19T02:38:31.029Z,89.50
2019-03-19T02:41:00.957Z,89.60
2019-03-19T02:43:31.009Z,89.90
2019-03-19T02:46:00.956Z,89.90
2019-03-19T02:48:30.766Z,89.80
2019-03-19T02:51:00.742Z,89.50
2019-03-19T02:53:30.752Z,89.20
2019-03-19T02:56:00.650Z,88.90
2019-03-19T02:58:30.602Z,88.50
2019-03-19T03:01:00.570Z,88.50
2019-03-19T03:03:30.441Z,88.90
2019-03-19T03:06:00.256Z,88.80
2019-03-19T03:08:30.094Z,89.30
2019-03-19T03:11:01.218Z,89.00
2019-03-19T03:13:31.098Z,88.90
2019-03-19T03:16:01.073Z,88.90
2019-03-19T03:18:31.024Z,89.20
2019-03-19T03:21:00.966Z,89.10
2019-03-19T03:23:30.982Z,89.80
2019-03-19T03:26:00.864Z,90.00
2019-03-19T03:28:30.777Z,90.00
2019-03-19T03:31:00.665Z,90.60
2019-03-19T03:33:30.618Z,90.40
2019-03-19T03:36:00.516Z,90.60
2019-03-19T03:38:30.468Z,91.30
2019-03-19T03:41:00.274Z,91.00
2019-03-19T03:43:30.310Z,90.40
2019-03-19T03:46:00.129Z,90.60
2019-03-19T03:48:31.146Z,90.40
2019-03-19T03:51:01.021Z,91.30
2019-03-19T03:53:30.977Z,91.10
2019-03-19T03:56:00.960Z,91.90
2019-03-19T03:58:31.033Z,92.80
2019-03-19T04:01:01.054Z,93.10
2019-03-19T04:03:30.851Z,94.00
2019-03-19T04:06:00.741Z,93.90
2019-03-19T04:08:30.695Z,94.30
2019-03-19T04:11:00.661Z,94.20
2019-03-19T04:13:30.701Z,93.40
2019-03-19T04:16:00.568Z,93.80
2019-03-19T04:18:30.421Z,94.50
2019-03-19T04:21:00.447Z,94.70
2019-03-19T04:23:30.372Z,93.90
2019-03-19T04:26:00.324Z,94.10
2019-03-19T04:28:30.135Z,94.60
2019-03-19T04:31:00.014Z,95.00
2019-03-19T04:33:29.972Z,95.00
2019-03-19T04:35:59.878Z,95.20
2019-03-19T04:38:29.761Z,95.20
2019-03-19T04:40:59.725Z,95.00
2019-03-19T04:43:29.538Z,94.10
2019-03-19T04:45:59.533Z,94.40
2019-03-19T04:48:29.404Z,95.20
2019-03-19T04:50:59.351Z,95.10
2019-03-19T04:53:29.327Z,95.40
2019-03-19T04:55:59.187Z,96.00
2019-03-19T04:58:29.245Z,95.70
2019-03-19T05:00:59.197Z,95.20
2019-03-19T05:03:29.025Z,95.60
2019-03-19T05:05:59.707Z,95.70
2019-03-19T05:08:29.756Z,95.70
2019-03-19T05:10:59.703Z,95.80
2019-03-19T05:13:29.758Z,95.10
2019-03-19T05:15:59.743Z,95.20
2019-03-19T05:18:31.436Z,95.10
2019-03-19T05:21:01.207Z,95.00
2019-03-19T05:23:31.043Z,94.60
2019-03-19T05:26:00.866Z,94.90
2019-03-19T05:28:30.723Z,95.00
2019-03-19T05:31:00.600Z,94.70
2019-03-19T05:33:30.485Z,95.60
2019-03-19T05:36:00.376Z,94.60
2019-03-19T05:38:30.337Z,94.50
2019-03-19T05:41:00.163Z,94.80
2019-03-19T05:43:30.049Z,93.50
2019-03-19T05:46:00.102Z,92.80
2019-03-19T05:48:29.984Z,91.90
2019-03-19T05:50:59.950Z,91.80
2019-03-19T05:53:29.919Z,91.90
2019-03-19T05:55:59.886Z,91.60
2019-03-19T05:58:30.873Z,90.90
2019-03-19T06:01:00.701Z,90.50
2019-03-19T06:03:30.519Z,90.30
2019-03-19T06:06:00.492Z,90.10
2019-03-19T06:08:30.370Z,90.40
2019-03-19T06:11:00.414Z,90.90
2019-03-19T06:13:30.285Z,90.80
2019-03-19T06:16:01.027Z,90.30
2019-03-19T06:18:43.207Z,89.40
2019-03-19T06:21:13.259Z,89.30
2019-03-19T06:23:43.210Z,89.30
2019-03-19T06:26:13.165Z,90.00
2019-03-19T06:28:42.993Z,88.20
2019-03-19T06:31:12.882Z,87.80
2019-03-19T06:33:42.913Z,87.70
2019-03-19T06:36:12.729Z,88.60
2019-03-19T06:38:43.696Z,88.80
2019-03-19T06:41:13.645Z,86.00
2019-03-19T06:43:43.562Z,86.30
2019-03-19T06:46:13.451Z,85.10
2019-03-19T06:48:43.278Z,85.00
2019-03-19T06:51:13.163Z,85.90
2019-03-19T06:53:43.181Z,84.80
2019-03-19T06:56:14.818Z,84.10
2019-03-19T06:58:44.575Z,84.10
2019-03-19T07:01:14.691Z,83.00
2019-03-19T07:03:44.661Z,83.70
2019-03-19T07:06:14.628Z,83.00
2019-03-19T07:08:44.512Z,82.30
2019-03-19T07:11:14.408Z,81.50
2019-03-19T07:13:44.355Z,82.10
2019-03-19T07:16:14.243Z,82.80
2019-03-19T07:18:44.134Z,81.10
2019-03-19T07:21:14.107Z,80.00
2019-03-19T07:23:43.986Z,78.50
2019-03-19T07:26:13.995Z,77.00
2019-03-19T07:28:43.952Z,76.20
2019-03-19T07:31:13.771Z,75.90
2019-03-19T07:33:43.593Z,76.10
2019-03-19T07:36:13.478Z,74.70
2019-03-19T07:38:43.370Z,73.90
2019-03-19T07:41:13.400Z,73.50
2019-03-19T07:43:43.368Z,72.40
2019-03-19T07:46:13.253Z,72.10
2019-03-19T07:48:43.214Z,73.50
2019-03-19T07:51:13.233Z,72.20
2019-03-19T07:53:43.153Z,74.40
2019-03-19T07:56:13.086Z,72.70
2019-03-19T07:58:45.403Z,72.90
2019-03-19T08:01:14.413Z,71.20
2019-03-19T08:03:44.451Z,68.60
2019-03-19T08:06:14.408Z,69.90
2019-03-19T08:08:44.207Z,69.40
2019-03-19T08:11:16.555Z,69.60
2019-03-19T08:13:45.599Z,69.60
2019-03-19T08:16:27.025Z,68.10
2019-03-19T08:18:50.766Z,66.00
2019-03-19T08:21:22.506Z,65.20
2019-03-19T08:23:52.245Z,63.90
2019-03-19T08:26:22.063Z,63.80
2019-03-19T08:28:55.574Z,62.30
2019-03-19T08:31:23.600Z,60.50
2019-03-19T08:33:53.625Z,60.80
2019-03-19T08:36:23.663Z,60.20
2019-03-19T08:38:53.610Z,60.10
2019-03-19T08:41:23.570Z,59.80
2019-03-19T08:43:53.406Z,61.20
2019-03-19T08:46:23.416Z,60.60
2019-03-19T08:48:53.368Z,57.30
2019-03-19T08:51:23.327Z,59.90
2019-03-19T08:53:53.221Z,57.40
2019-03-19T08:56:23.034Z,60.10
2019-03-19T08:58:54.794Z,59.10
2019-03-19T09:01:24.608Z,58.70
2019-03-19T09:03:54.651Z,57.70
2019-03-19T09:06:24.452Z,59.70
2019-03-19T09:08:54.362Z,60.50
2019-03-19T09:11:24.326Z,58.00
2019-03-19T09:13:54.297Z,58.20
2019-03-19T09:16:24.189Z,59.00
2019-03-19T09:18:54.285Z,58.80
2019-03-19T09:21:24.164Z,55.80
2019-03-19T09:23:54.124Z,55.70
2019-03-19T09:26:24.013Z,55.30
2019-03-19T09:28:53.899Z,54.60
2019-03-19T09:31:23.727Z,54.90
2019-03-19T09:33:53.764Z,55.00
2019-03-19T09:36:23.648Z,50.60
2019-03-19T09:38:53.533Z,49.80
2019-03-19T09:41:23.492Z,50.70
2019-03-19T09:43:53.711Z,49.60
2019-03-19T09:46:23.740Z,47.70
2019-03-19T09:48:53.628Z,49.30
2019-03-19T09:51:23.601Z,50.60
2019-03-19T09:53:53.485Z,46.20
2019-03-19T09:56:23.517Z,46.20
2019-03-19T09:58:53.396Z,45.90
2019-03-19T10:01:23.293Z,45.80
2019-03-19T10:03:53.177Z,48.70
2019-03-19T10:06:23.073Z,47.40
2019-03-19T10:08:52.958Z,46.00
2019-03-19T10:11:22.930Z,45.50
2019-03-19T10:13:52.878Z,47.60
2019-03-19T10:16:22.876Z,48.20
2019-03-19T10:18:52.761Z,46.40
2019-03-19T10:21:22.657Z,47.90
2019-03-19T10:23:54.944Z,47.00
2019-03-19T10:26:25.211Z,46.80
2019-03-19T10:28:55.113Z,46.90
2019-03-19T10:31:25.235Z,48.00
2019-03-19T10:33:55.069Z,48.00
2019-03-19T10:36:25.037Z,47.90
2019-03-19T10:38:56.696Z,46.00
2019-03-19T10:41:26.591Z,46.30
2019-03-19T10:43:56.550Z,43.10
2019-03-19T10:46:26.375Z,44.80
2019-03-19T10:48:56.367Z,44.20
2019-03-19T10:51:26.213Z,42.70
2019-03-19T10:53:56.105Z,43.90
2019-03-19T10:56:26.079Z,48.80
2019-03-19T10:58:56.015Z,49.90
2019-03-19T11:01:26.909Z,45.50
2019-03-19T11:03:56.858Z,39.20
2019-03-19T11:06:26.816Z,39.80
2019-03-19T11:08:56.776Z,45.30
2019-03-19T11:11:28.382Z,47.70
2019-03-19T11:13:58.261Z,45.50
2019-03-19T11:16:28.203Z,46.90
2019-03-19T11:18:58.228Z,42.50
2019-03-19T11:21:28.182Z,45.50
2019-03-19T11:23:59.177Z,46.00
2019-03-19T11:26:29.065Z,43.10
2019-03-19T11:28:59.039Z,41.50
2019-03-19T11:31:28.924Z,40.90
2019-03-19T11:33:58.892Z,40.00
2019-03-19T11:36:29.945Z,39.30
2019-03-19T11:38:59.789Z,37.20
2019-03-19T11:41:31.338Z,38.70
2019-03-19T11:44:01.309Z,40.00
2019-03-19T11:46:32.003Z,38.10
2019-03-19T11:49:01.976Z,41.60
2019-03-19T11:51:31.927Z,38.70
2019-03-19T11:54:01.992Z,35.20
2019-03-19T11:56:31.887Z,36.50
2019-03-19T11:59:01.853Z,35.80
2019-03-19T12:01:31.823Z,40.20
2019-03-19T12:04:01.872Z,38.20
2019-03-19T12:06:31.676Z,37.10
2019-03-19T12:09:01.633Z,38.50
2019-03-19T12:11:32.734Z,34.90
2019-03-19T12:14:02.702Z,37.50
2019-03-19T12:16:34.303Z,35.40
2019-03-19T12:19:04.261Z,35.30
2019-03-19T12:21:34.161Z,36.20
2019-03-19T12:24:04.048Z,36.10
2019-03-19T12:26:34.092Z,34.40
2019-03-19T12:29:03.976Z,33.50
2019-03-19T12:31:33.880Z,33.50
2019-03-19T12:34:03.768Z,34.60
2019-03-19T12:36:33.588Z,34.30
2019-03-19T12:39:04.211Z,32.70
2019-03-19T12:41:34.100Z,31.70
2019-03-19T12:44:04.003Z,31.40
2019-03-19T12:46:33.999Z,31.10
2019-03-19T12:49:03.894Z,30.40
2019-03-19T12:51:34.744Z,30.10
2019-03-19T12:54:04.659Z,30.60
2019-03-19T12:56:34.795Z,32.10
2019-03-19T12:59:04.689Z,30.80
2019-03-19T13:01:34.762Z,32.20
2019-03-19T13:04:04.753Z,32.60
2019-03-19T13:06:34.651Z,32.50
2019-03-19T13:09:07.167Z,32.00
2019-03-19T13:11:37.149Z,33.20
2019-03-19T13:14:07.058Z,35.00
2019-03-19T13:16:37.097Z,31.70
2019-03-19T13:19:07.081Z,33.20
2019-03-19T13:21:36.961Z,33.40
2019-03-19T13:24:06.887Z,32.50
2019-03-19T13:26:36.783Z,32.20
2019-03-19T13:29:10.702Z,32.60
2019-03-19T13:31:40.680Z,33.00
2019-03-19T13:34:10.547Z,32.70
2019-03-19T13:36:40.438Z,33.40
2019-03-19T13:39:10.382Z,33.40
2019-03-19T13:41:40.265Z,33.90
2019-03-19T13:44:11.369Z,33.90
2019-03-19T13:46:42.426Z,34.10
2019-03-19T13:49:12.449Z,32.30
2019-03-19T13:51:42.402Z,33.10
2019-03-19T13:54:12.342Z,32.60
2019-03-19T13:56:42.291Z,35.20
2019-03-19T13:59:12.161Z,35.00
2019-03-19T14:01:42.142Z,36.60
2019-03-19T14:04:12.122Z,38.20
2019-03-19T14:06:42.009Z,36.10
2019-03-19T14:09:11.988Z,36.50
2019-03-19T14:11:41.818Z,37.60
2019-03-19T14:14:11.716Z,36.00
2019-03-19T14:16:41.678Z,36.30
2019-03-19T14:19:11.640Z,37.60
2019-03-19T14:21:41.464Z,37.30
2019-03-19T14:24:11.265Z,39.80
2019-03-19T14:26:41.181Z,38.10
2019-03-19T14:29:11.098Z,37.50
2019-03-19T14:31:40.945Z,38.30
2019-03-19T14:34:10.884Z,37.70
2019-03-19T14:36:40.784Z,37.60
2019-03-19T14:39:10.753Z,35.50
2019-03-19T14:41:40.578Z,35.20
2019-03-19T14:44:10.533Z,34.40
2019-03-19T14:46:40.505Z,34.50
2019-03-19T14:49:10.467Z,35.70
2019-03-19T14:51:40.507Z,37.40
2019-03-19T14:54:10.744Z,35.40
2019-03-19T14:56:41.744Z,35.00
2019-03-19T14:59:11.627Z,35.10
2019-03-19T15:01:41.609Z,33.40
2019-03-19T15:04:11.516Z,34.90
2019-03-19T15:06:41.480Z,36.10
2019-03-19T15:09:11.457Z,34.80
2019-03-19T15:11:41.484Z,34.60
2019-03-19T15:14:11.398Z,33.10
2019-03-19T15:16:41.208Z,34.00
2019-03-19T15:19:11.180Z,32.90
2019-03-19T15:21:41.059Z,33.90
2019-03-19T15:24:10.960Z,34.80
2019-03-19T15:26:40.921Z,34.20
2019-03-19T15:29:10.752Z,35.60
2019-03-19T15:31:40.703Z,35.70
2019-03-19T15:34:10.518Z,35.90
2019-03-19T15:36:40.481Z,35.80
2019-03-19T15:39:11.373Z,36.80
2019-03-19T15:41:41.341Z,37.10
2019-03-19T15:44:11.263Z,35.70
2019-03-19T15:46:41.210Z,36.30
2019-03-19T15:49:11.106Z,37.30
2019-03-19T15:51:41.072Z,37.00
2019-03-19T15:54:11.025Z,37.60
2019-03-19T15:56:41.002Z,36.00
2019-03-19T15:59:10.812Z,37.30
2019-03-19T16:01:40.876Z,37.90
2019-03-19T16:04:10.752Z,37.50
2019-03-19T16:06:40.728Z,36.50
2019-03-19T16:09:10.612Z,36.30
2019-03-19T16:11:40.476Z,37.10
2019-03-19T16:14:10.460Z,36.40
2019-03-19T16:16:40.341Z,36.90
2019-03-19T16:19:10.312Z,36.20
2019-03-19T16:21:40.200Z,38.40
2019-03-19T16:24:11.354Z,39.30
2019-03-19T16:26:41.245Z,38.50
2019-03-19T16:29:11.144Z,38.20
2019-03-19T16:31:50.648Z,40.50
2019-03-19T16:34:14.088Z,41.10
2019-03-19T16:36:44.053Z,41.60
2019-03-19T16:39:14.012Z,41.40
2019-03-19T16:41:43.974Z,42.40
2019-03-19T16:44:13.800Z,42.50
2019-03-19T16:46:44.244Z,43.20
2019-03-19T16:49:14.199Z,43.20
2019-03-19T16:51:44.145Z,43.60
2019-03-19T16:54:14.102Z,42.80
2019-03-19T16:56:44.004Z,42.90
2019-03-19T16:59:13.902Z,43.40
2019-03-19T17:01:43.875Z,43.40
2019-03-19T17:04:13.830Z,44.60
2019-03-19T17:06:43.647Z,44.00
2019-03-19T17:09:13.680Z,44.20
2019-03-19T17:11:43.589Z,44.40
2019-03-19T17:14:13.621Z,45.70
2019-03-19T17:16:43.581Z,46.30
2019-03-19T17:19:13.531Z,46.60
2019-03-19T17:21:43.440Z,47.50
2019-03-19T17:24:13.339Z,47.50
2019-03-19T17:26:43.275Z,47.60
2019-03-19T17:29:13.246Z,48.50
2019-03-19T17:31:43.150Z,49.40
2019-03-19T17:34:13.035Z,49.80
2019-03-19T17:36:42.850Z,50.50
2019-03-19T17:39:12.751Z,50.90
2019-03-19T17:41:42.629Z,51.20
2019-03-19T17:44:12.584Z,51.70
2019-03-19T17:46:42.494Z,53.20
2019-03-19T17:49:12.266Z,53.20
2019-03-19T17:51:42.203Z,53.80
2019-03-19T17:54:12.036Z,54.60
2019-03-19T17:56:52.515Z,55.60
2019-03-19T17:59:23.538Z,55.50
2019-03-19T18:01:53.416Z,55.90
2019-03-19T18:04:23.384Z,56.50
2019-03-19T18:06:53.290Z,56.50
2019-03-19T18:09:23.366Z,56.90
2019-03-19T18:11:53.248Z,56.80
2019-03-19T18:14:23.265Z,57.20
2019-03-19T18:16:53.902Z,56.90
2019-03-19T18:19:23.941Z,57.30
2019-03-19T18:21:53.766Z,57.80
2019-03-19T18:24:23.638Z,58.50
2019-03-19T18:26:53.591Z,58.90
2019-03-19T18:29:23.680Z,59.20
2019-03-19T18:31:53.721Z,59.30
2019-03-19T18:34:23.522Z,59.50
2019-03-19T18:36:53.360Z,59.90
2019-03-19T18:39:23.231Z,59.80
2019-03-19T18:41:53.237Z,60.80
2019-03-19T18:44:23.062Z,61.40
2019-03-19T18:46:52.863Z,60.90
2019-03-19T18:49:22.763Z,61.00
2019-03-19T18:51:52.639Z,61.80
2019-03-19T18:54:22.677Z,61.60
2019-03-19T18:56:52.708Z,61.90
2019-03-19T18:59:22.532Z,62.70
2019-03-19T19:01:52.435Z,63.50
2019-03-19T19:04:22.345Z,63.50
2019-03-19T19:06:52.220Z,63.10
2019-03-19T19:09:22.326Z,63.70
2019-03-19T19:11:52.328Z,64.00
2019-03-19T19:14:22.287Z,64.60
2019-03-19T19:16:53.294Z,64.60
2019-03-19T19:19:23.221Z,64.50
2019-03-19T19:21:53.167Z,65.30
2019-03-19T19:24:24.129Z,65.60
2019-03-19T19:26:54.106Z,66.20
2019-03-19T19:29:23.911Z,66.60
2019-03-19T19:31:53.876Z,66.40
2019-03-19T19:34:23.775Z,66.10
2019-03-19T19:36:53.666Z,67.50
2019-03-19T19:39:23.480Z,67.00
2019-03-19T19:41:53.489Z,68.40
2019-03-19T19:44:23.380Z,67.60
2019-03-19T19:46:53.584Z,67.90
2019-03-19T19:49:23.411Z,68.10
2019-03-19T19:51:53.324Z,69.20
2019-03-19T19:54:23.220Z,68.90
2019-03-19T19:56:53.161Z,68.40
2019-03-19T19:59:22.982Z,68.60
2019-03-19T20:01:52.814Z,68.60
2019-03-19T20:04:22.936Z,69.10
2019-03-19T20:06:52.834Z,68.20
2019-03-19T20:09:22.741Z,67.60
2019-03-19T20:11:52.778Z,67.60
2019-03-19T20:14:22.743Z,68.20
2019-03-19T20:16:52.614Z,67.90
2019-03-19T20:19:22.591Z,67.50
2019-03-19T20:21:53.716Z,67.60
2019-03-19T20:24:23.769Z,67.20
2019-03-19T20:26:54.717Z,67.30
2019-03-19T20:29:24.628Z,67.50
2019-03-19T20:31:54.675Z,67.30
2019-03-19T20:34:24.848Z,67.10
2019-03-19T20:36:54.927Z,66.90
2019-03-19T20:39:24.830Z,66.60
2019-03-19T20:41:54.825Z,66.70
2019-03-19T20:44:24.927Z,66.50
2019-03-19T20:46:54.864Z,65.60
2019-03-19T20:49:24.852Z,64.40
2019-03-19T20:51:56.567Z,63.60
2019-03-19T20:54:27.067Z,63.70
2019-03-19T20:56:57.103Z,62.90
2019-03-19T20:59:27.007Z,62.80
2019-03-19T21:01:57.044Z,63.40
2019-03-19T21:04:29.001Z,63.40
2019-03-19T21:06:58.529Z,63.10
2019-03-19T21:09:28.437Z,63.00
2019-03-19T21:11:58.400Z,62.40
2019-03-19T21:14:28.360Z,62.30
2019-03-19T21:16:58.285Z,62.00
2019-03-19T21:19:28.245Z,62.00
2019-03-19T21:22:00.457Z,61.70
2019-03-19T21:24:29.716Z,61.20
2019-03-19T21:26:59.609Z,61.70
2019-03-19T21:29:29.565Z,61.30
2019-03-19T21:31:59.397Z,60.90
2019-03-19T21:34:29.277Z,60.50
2019-03-19T21:37:00.398Z,60.30
2019-03-19T21:39:30.344Z,60.50
2019-03-19T21:42:00.295Z,60.60
2019-03-19T21:44:30.216Z,60.30
2019-03-19T21:47:00.121Z,60.10
2019-03-19T21:49:30.017Z,60.20
2019-03-19T21:51:59.977Z,60.50
2019-03-19T21:54:29.874Z,59.90
2019-03-19T21:56:59.703Z,60.50
2019-03-19T21:59:29.750Z,60.00
2019-03-19T22:01:59.700Z,60.20
2019-03-19T22:04:29.664Z,60.10
2019-03-19T22:06:59.561Z,59.90
2019-03-19T22:09:29.596Z,59.90
2019-03-19T22:11:59.708Z,59.50
2019-03-19T22:14:29.585Z,58.90
2019-03-19T22:16:59.526Z,59.20
2019-03-19T22:19:29.479Z,59.20
2019-03-19T22:21:59.368Z,59.10
2019-03-19T22:24:29.255Z,58.90
2019-03-19T22:26:59.301Z,58.80
2019-03-19T22:29:29.149Z,58.70
2019-03-19T22:31:58.983Z,59.00
2019-03-19T22:34:28.982Z,59.10
2019-03-19T22:36:58.929Z,59.10
2019-03-19T22:39:28.800Z,59.10
2019-03-19T22:41:58.768Z,59.30
2019-03-19T22:44:28.731Z,59.30
2019-03-19T22:46:58.681Z,59.00
2019-03-19T22:49:28.543Z,59.50
2019-03-19T22:51:58.502Z,58.80
2019-03-19T22:54:28.393Z,58.40
2019-03-19T22:56:58.407Z,57.90
2019-03-19T22:59:28.292Z,57.80
2019-03-19T23:01:58.313Z,58.20
2019-03-19T23:04:28.352Z,58.90
2019-03-19T23:06:58.228Z,58.60
2019-03-19T23:09:28.122Z,58.50
2019-03-19T23:11:58.001Z,58.40
2019-03-19T23:14:28.110Z,58.50
2019-03-19T23:16:57.994Z,58.90
2019-03-19T23:19:27.984Z,58.10
2019-03-19T23:21:57.869Z,58.30
2019-03-19T23:24:28.907Z,58.80
2019-03-19T23:26:58.845Z,58.50
2019-03-19T23:29:28.804Z,58.50
2019-03-19T23:31:58.762Z,58.80
2019-03-19T23:34:38.121Z,59.50
2019-03-19T23:37:00.280Z,59.50
2019-03-19T23:39:30.279Z,59.10
2019-03-19T23:42:00.157Z,59.20
2019-03-19T23:44:30.122Z,59.60
2019-03-19T23:47:00.014Z,59.80
2019-03-19T23:49:29.824Z,59.40
2019-03-19T23:51:59.721Z,59.60
2019-03-19T23:54:29.677Z,59.60
2019-03-19T23:56:59.576Z,59.80
2019-03-19T23:59:29.469Z,59.70
